CheckWX is a tool to help pilots better visualize weather data.  It is not intended as a substitute for an official pre-flight weather briefing.

12:36:33 UTC

BGTL METAR
Thule Air Base Airport
Qaanaaq, Greenland
Current

41 mins ago

BGTL 251156Z COR AUTO 09009KT 9999 CLR M27/M32 A2927 RMK AO2 SLP906 4/005 T12731325 11256 21301 57031 TSNO $ COR 1209
Observed
Mar-25 @ 11:56 UTC
Wind
  • 090° at 9 KTS
Visibility
10,000+ meters
Flight Rules
VFR
Cloud Levels
  • Clear skies
Temperature
-27°C / -17°F
Dewpoint
-33°C / -27°F
Humidity
57%
Altimeter
29.27" Hg
Pressure
990.6 hPa
Snow Depth
5"
Previous

2 hours ago

BGTL 251056Z AUTO 09008KT 9999 CLR M28/M33 A2932 RMK AO2 SLP923 T12821335 TSNO $
Observed
Mar-25 @ 10:56 UTC
Wind
  • 090° at 8 KTS
Visibility
10,000+ meters
Flight Rules
VFR
Cloud Levels
  • Clear skies
Temperature
-28°C / -18°F
Dewpoint
-34°C / -29°F
Humidity
56%
Altimeter
29.32" Hg
Pressure
992.3 hPa
Previous

3 hours ago

BGTL 250956Z AUTO 12006KT 9999 CLR M26/M32 A2934 RMK AO2 SLP929 T12601317 TSNO $
Observed
Mar-25 @ 09:56 UTC
Wind
  • 120° at 6 KTS
Visibility
10,000+ meters
Flight Rules
VFR
Cloud Levels
  • Clear skies
Temperature
-26°C / -15°F
Dewpoint
-32°C / -26°F
Humidity
57%
Altimeter
29.34" Hg
Pressure
992.9 hPa